sensor_id;sensor_type;location;lat;lon;timestamp;P1;durP1;ratioP1;P2;durP2;ratioP2
5742;SDS011;2896;53.500;10.020;2023-09-18T00:01:01;6.90;;;6.43;;
5742;SDS011;2896;53.500;10.020;2023-09-18T00:03:29;7.50;;;7.00;;
5742;SDS011;2896;53.500;10.020;2023-09-18T00:05:55;6.70;;;6.13;;
5742;SDS011;2896;53.500;10.020;2023-09-18T00:08:22;6.20;;;5.80;;
5742;SDS011;2896;53.500;10.020;2023-09-18T00:10:49;7.03;;;6.63;;
5742;SDS011;2896;53.500;10.020;2023-09-18T00:13:21;6.97;;;6.47;;
5742;SDS011;2896;53.500;10.020;2023-09-18T00:15:48;7.30;;;6.77;;
5742;SDS011;2896;53.500;10.020;2023-09-18T00:18:17;6.50;;;6.10;;
5742;SDS011;2896;53.500;10.020;2023-09-18T00:20:44;6.80;;;6.40;;
5742;SDS011;2896;53.500;10.020;2023-09-18T00:23:14;7.40;;;6.80;;
5742;SDS011;2896;53.500;10.020;2023-09-18T00:25:41;7.53;;;6.47;;
5742;SDS011;2896;53.500;10.020;2023-09-18T00:28:07;7.50;;;7.00;;
5742;SDS011;2896;53.500;10.020;2023-09-18T00:30:37;8.33;;;7.63;;
5742;SDS011;2896;53.500;10.020;2023-09-18T00:33:04;8.30;;;7.70;;
5742;SDS011;2896;53.500;10.020;2023-09-18T00:35:30;7.90;;;7.30;;
5742;SDS011;2896;53.500;10.020;2023-09-18T00:37:57;8.07;;;7.33;;
5742;SDS011;2896;53.500;10.020;2023-09-18T00:40:23;8.40;;;7.70;;
5742;SDS011;2896;53.500;10.020;2023-09-18T00:42:50;7.37;;;6.77;;
5742;SDS011;2896;53.500;10.020;2023-09-18T00:45:17;8.30;;;7.70;;
5742;SDS011;2896;53.500;10.020;2023-09-18T00:47:45;7.60;;;7.10;;
5742;SDS011;2896;53.500;10.020;2023-09-18T00:50:11;7.23;;;6.73;;
5742;SDS011;2896;53.500;10.020;2023-09-18T00:52:39;8.30;;;7.47;;
5742;SDS011;2896;53.500;10.020;2023-09-18T00:55:07;8.73;;;8.13;;
5742;SDS011;2896;53.500;10.020;2023-09-18T00:57:34;8.73;;;8.07;;
5742;SDS011;2896;53.500;10.020;2023-09-18T01:00:01;10.20;;;9.30;;
5742;SDS011;2896;53.500;10.020;2023-09-18T01:02:30;8.70;;;8.00;;
5742;SDS011;2896;53.500;10.020;2023-09-18T01:04:58;9.07;;;8.27;;
5742;SDS011;2896;53.500;10.020;2023-09-18T01:07:25;8.20;;;7.50;;
5742;SDS011;2896;53.500;10.020;2023-09-18T01:09:53;8.97;;;8.27;;
5742;SDS011;2896;53.500;10.020;2023-09-18T01:12:23;9.43;;;8.63;;
5742;SDS011;2896;53.500;10.020;2023-09-18T01:14:56;8.10;;;7.43;;
5742;SDS011;2896;53.500;10.020;2023-09-18T01:17:28;8.83;;;8.03;;
5742;SDS011;2896;53.500;10.020;2023-09-18T01:19:56;9.20;;;8.50;;
5742;SDS011;2896;53.500;10.020;2023-09-18T01:22:24;8.13;;;7.63;;
5742;SDS011;2896;53.500;10.020;2023-09-18T01:24:52;8.87;;;8.17;;
5742;SDS011;2896;53.500;10.020;2023-09-18T01:27:19;8.30;;;7.70;;
5742;SDS011;2896;53.500;10.020;2023-09-18T01:29:46;10.57;;;9.57;;
5742;SDS011;2896;53.500;10.020;2023-09-18T01:32:14;9.10;;;8.40;;
5742;SDS011;2896;53.500;10.020;2023-09-18T01:34:41;9.67;;;8.87;;
5742;SDS011;2896;53.500;10.020;2023-09-18T01:37:11;10.00;;;9.10;;
5742;SDS011;2896;53.500;10.020;2023-09-18T01:39:38;9.70;;;8.90;;
5742;SDS011;2896;53.500;10.020;2023-09-18T01:42:07;10.37;;;9.33;;
5742;SDS011;2896;53.500;10.020;2023-09-18T01:44:35;8.73;;;8.03;;
5742;SDS011;2896;53.500;10.020;2023-09-18T01:47:03;9.40;;;8.60;;
5742;SDS011;2896;53.500;10.020;2023-09-18T01:49:33;9.90;;;9.10;;
5742;SDS011;2896;53.500;10.020;2023-09-18T01:52:00;8.73;;;8.03;;
5742;SDS011;2896;53.500;10.020;2023-09-18T01:54:27;7.50;;;7.00;;
5742;SDS011;2896;53.500;10.020;2023-09-18T01:56:54;10.57;;;8.10;;
5742;SDS011;2896;53.500;10.020;2023-09-18T01:59:22;7.83;;;7.13;;
5742;SDS011;2896;53.500;10.020;2023-09-18T02:01:50;7.57;;;7.07;;
5742;SDS011;2896;53.500;10.020;2023-09-18T02:04:17;8.87;;;8.07;;
5742;SDS011;2896;53.500;10.020;2023-09-18T02:06:44;7.37;;;6.80;;
5742;SDS011;2896;53.500;10.020;2023-09-18T02:09:12;8.40;;;7.80;;
5742;SDS011;2896;53.500;10.020;2023-09-18T02:11:39;7.13;;;6.63;;
5742;SDS011;2896;53.500;10.020;2023-09-18T02:14:07;10.00;;;8.90;;
5742;SDS011;2896;53.500;10.020;2023-09-18T02:16:37;9.67;;;8.97;;
5742;SDS011;2896;53.500;10.020;2023-09-18T02:19:06;8.50;;;7.80;;
5742;SDS011;2896;53.500;10.020;2023-09-18T02:21:33;9.37;;;8.60;;
5742;SDS011;2896;53.500;10.020;2023-09-18T02:23:59;9.87;;;8.87;;
5742;SDS011;2896;53.500;10.020;2023-09-18T02:26:26;8.00;;;7.50;;
5742;SDS011;2896;53.500;10.020;2023-09-18T02:28:54;10.10;;;9.23;;
5742;SDS011;2896;53.500;10.020;2023-09-18T02:31:21;10.47;;;9.50;;
5742;SDS011;2896;53.500;10.020;2023-09-18T02:33:49;10.97;;;9.83;;
5742;SDS011;2896;53.500;10.020;2023-09-18T02:36:16;9.70;;;8.67;;
5742;SDS011;2896;53.500;10.020;2023-09-18T02:38:43;8.70;;;8.00;;
5742;SDS011;2896;53.500;10.020;2023-09-18T02:41:09;8.70;;;8.10;;
5742;SDS011;2896;53.500;10.020;2023-09-18T02:43:36;8.90;;;8.20;;
5742;SDS011;2896;53.500;10.020;2023-09-18T02:46:03;11.80;;;9.30;;
5742;SDS011;2896;53.500;10.020;2023-09-18T02:48:30;10.97;;;9.97;;
5742;SDS011;2896;53.500;10.020;2023-09-18T02:50:59;10.97;;;9.87;;
5742;SDS011;2896;53.500;10.020;2023-09-18T02:53:25;10.83;;;9.93;;
5742;SDS011;2896;53.500;10.020;2023-09-18T02:55:53;11.40;;;10.40;;
5742;SDS011;2896;53.500;10.020;2023-09-18T02:58:21;11.20;;;10.10;;
5742;SDS011;2896;53.500;10.020;2023-09-18T03:00:51;11.20;;;10.20;;
5742;SDS011;2896;53.500;10.020;2023-09-18T03:03:18;9.60;;;8.80;;
5742;SDS011;2896;53.500;10.020;2023-09-18T03:05:45;10.37;;;9.43;;
5742;SDS011;2896;53.500;10.020;2023-09-18T03:08:13;12.37;;;10.10;;
5742;SDS011;2896;53.500;10.020;2023-09-18T03:10:41;10.57;;;9.70;;
5742;SDS011;2896;53.500;10.020;2023-09-18T03:13:08;9.73;;;8.83;;
5742;SDS011;2896;53.500;10.020;2023-09-18T03:15:36;10.23;;;9.27;;
5742;SDS011;2896;53.500;10.020;2023-09-18T03:18:03;11.37;;;9.00;;
5742;SDS011;2896;53.500;10.020;2023-09-18T03:20:32;9.63;;;8.83;;
5742;SDS011;2896;53.500;10.020;2023-09-18T03:22:59;9.47;;;8.67;;
5742;SDS011;2896;53.500;10.020;2023-09-18T03:25:29;11.20;;;9.67;;
5742;SDS011;2896;53.500;10.020;2023-09-18T03:27:56;11.20;;;10.00;;
5742;SDS011;2896;53.500;10.020;2023-09-18T03:30:24;11.47;;;10.47;;
5742;SDS011;2896;53.500;10.020;2023-09-18T03:32:51;11.23;;;9.83;;
5742;SDS011;2896;53.500;10.020;2023-09-18T03:35:18;10.33;;;9.47;;
5742;SDS011;2896;53.500;10.020;2023-09-18T03:37:45;9.13;;;8.33;;
5742;SDS011;2896;53.500;10.020;2023-09-18T03:40:12;9.90;;;9.10;;
5742;SDS011;2896;53.500;10.020;2023-09-18T03:42:40;10.30;;;9.30;;
5742;SDS011;2896;53.500;10.020;2023-09-18T03:45:07;10.73;;;9.70;;
5742;SDS011;2896;53.500;10.020;2023-09-18T03:47:35;16.00;;;10.57;;
5742;SDS011;2896;53.500;10.020;2023-09-18T03:50:04;10.10;;;9.20;;
5742;SDS011;2896;53.500;10.020;2023-09-18T03:52:32;10.37;;;9.33;;
5742;SDS011;2896;53.500;10.020;2023-09-18T03:54:58;9.90;;;9.10;;
5742;SDS011;2896;53.500;10.020;2023-09-18T03:57:25;10.07;;;9.17;;
5742;SDS011;2896;53.500;10.020;2023-09-18T03:59:53;11.00;;;10.00;;
5742;SDS011;2896;53.500;10.020;2023-09-18T04:02:21;10.43;;;9.57;;
5742;SDS011;2896;53.500;10.020;2023-09-18T04:04:49;10.97;;;9.97;;
5742;SDS011;2896;53.500;10.020;2023-09-18T04:07:16;10.77;;;9.87;;
5742;SDS011;2896;53.500;10.020;2023-09-18T04:09:44;10.83;;;9.77;;
5742;SDS011;2896;53.500;10.020;2023-09-18T04:12:11;9.80;;;8.90;;
5742;SDS011;2896;53.500;10.020;2023-09-18T04:14:38;8.80;;;8.13;;
5742;SDS011;2896;53.500;10.020;2023-09-18T04:17:06;9.30;;;8.57;;
5742;SDS011;2896;53.500;10.020;2023-09-18T04:19:33;9.73;;;8.83;;
5742;SDS011;2896;53.500;10.020;2023-09-18T04:21:59;10.87;;;9.97;;
5742;SDS011;2896;53.500;10.020;2023-09-18T04:24:26;12.90;;;11.60;;
5742;SDS011;2896;53.500;10.020;2023-09-18T04:26:53;11.33;;;10.23;;
5742;SDS011;2896;53.500;10.020;2023-09-18T04:29:19;10.73;;;9.77;;
5742;SDS011;2896;53.500;10.020;2023-09-18T04:31:46;10.97;;;9.97;;
5742;SDS011;2896;53.500;10.020;2023-09-18T04:34:14;9.83;;;8.97;;
5742;SDS011;2896;53.500;10.020;2023-09-18T04:36:41;9.50;;;8.70;;
5742;SDS011;2896;53.500;10.020;2023-09-18T04:39:09;10.10;;;9.10;;
5742;SDS011;2896;53.500;10.020;2023-09-18T04:41:35;14.83;;;10.10;;
5742;SDS011;2896;53.500;10.020;2023-09-18T04:44:03;12.00;;;10.57;;
5742;SDS011;2896;53.500;10.020;2023-09-18T04:46:30;12.63;;;9.47;;
5742;SDS011;2896;53.500;10.020;2023-09-18T04:48:57;11.93;;;10.83;;
5742;SDS011;2896;53.500;10.020;2023-09-18T04:51:25;11.10;;;10.10;;
5742;SDS011;2896;53.500;10.020;2023-09-18T04:53:52;16.77;;;11.23;;
5742;SDS011;2896;53.500;10.020;2023-09-18T04:56:19;11.70;;;10.23;;
5742;SDS011;2896;53.500;10.020;2023-09-18T04:58:46;12.90;;;11.73;;
5742;SDS011;2896;53.500;10.020;2023-09-18T05:01:13;12.17;;;10.87;;
5742;SDS011;2896;53.500;10.020;2023-09-18T05:03:40;12.00;;;11.00;;
5742;SDS011;2896;53.500;10.020;2023-09-18T05:06:07;11.67;;;10.50;;
5742;SDS011;2896;53.500;10.020;2023-09-18T05:08:35;14.63;;;11.60;;
5742;SDS011;2896;53.500;10.020;2023-09-18T05:11:02;14.40;;;12.20;;
5742;SDS011;2896;53.500;10.020;2023-09-18T05:13:28;25.37;;;14.57;;
5742;SDS011;2896;53.500;10.020;2023-09-18T05:15:55;18.80;;;13.80;;
5742;SDS011;2896;53.500;10.020;2023-09-18T05:18:23;60.00;;;22.90;;
5742;SDS011;2896;53.500;10.020;2023-09-18T05:20:50;20.23;;;12.83;;
5742;SDS011;2896;53.500;10.020;2023-09-18T05:23:17;14.97;;;12.20;;
5742;SDS011;2896;53.500;10.020;2023-09-18T05:25:45;23.70;;;13.07;;
5742;SDS011;2896;53.500;10.020;2023-09-18T05:28:12;22.30;;;13.10;;
5742;SDS011;2896;53.500;10.020;2023-09-18T05:30:39;28.40;;;13.33;;
5742;SDS011;2896;53.500;10.020;2023-09-18T05:33:06;24.03;;;14.00;;
5742;SDS011;2896;53.500;10.020;2023-09-18T05:35:33;24.40;;;13.20;;
5742;SDS011;2896;53.500;10.020;2023-09-18T05:38:01;13.50;;;10.67;;
5742;SDS011;2896;53.500;10.020;2023-09-18T05:40:28;12.60;;;10.83;;
5742;SDS011;2896;53.500;10.020;2023-09-18T05:42:57;10.27;;;9.27;;
5742;SDS011;2896;53.500;10.020;2023-09-18T05:45:23;11.00;;;10.10;;
5742;SDS011;2896;53.500;10.020;2023-09-18T05:47:51;13.93;;;9.83;;
5742;SDS011;2896;53.500;10.020;2023-09-18T05:50:19;11.77;;;10.67;;
5742;SDS011;2896;53.500;10.020;2023-09-18T05:52:46;11.93;;;10.77;;
5742;SDS011;2896;53.500;10.020;2023-09-18T05:55:13;10.37;;;9.37;;
5742;SDS011;2896;53.500;10.020;2023-09-18T05:57:41;10.23;;;9.43;;
5742;SDS011;2896;53.500;10.020;2023-09-18T06:00:09;11.03;;;10.13;;
5742;SDS011;2896;53.500;10.020;2023-09-18T06:02:38;14.90;;;10.40;;
5742;SDS011;2896;53.500;10.020;2023-09-18T06:05:05;11.87;;;10.47;;
5742;SDS011;2896;53.500;10.020;2023-09-18T06:07:32;15.63;;;10.17;;
5742;SDS011;2896;53.500;10.020;2023-09-18T06:09:59;11.07;;;10.07;;
5742;SDS011;2896;53.500;10.020;2023-09-18T06:12:25;10.60;;;9.60;;
5742;SDS011;2896;53.500;10.020;2023-09-18T06:14:52;11.03;;;10.10;;
5742;SDS011;2896;53.500;10.020;2023-09-18T06:17:20;11.17;;;10.07;;
5742;SDS011;2896;53.500;10.020;2023-09-18T06:19:47;12.03;;;9.80;;
5742;SDS011;2896;53.500;10.020;2023-09-18T06:22:14;10.03;;;9.13;;
5742;SDS011;2896;53.500;10.020;2023-09-18T06:24:41;10.00;;;9.10;;
5742;SDS011;2896;53.500;10.020;2023-09-18T06:27:08;8.83;;;7.90;;
5742;SDS011;2896;53.500;10.020;2023-09-18T06:29:36;10.43;;;9.30;;
5742;SDS011;2896;53.500;10.020;2023-09-18T06:32:04;10.70;;;9.70;;
5742;SDS011;2896;53.500;10.020;2023-09-18T06:34:33;9.90;;;9.10;;
5742;SDS011;2896;53.500;10.020;2023-09-18T06:36:59;9.93;;;9.03;;
5742;SDS011;2896;53.500;10.020;2023-09-18T06:39:28;9.90;;;8.57;;
5742;SDS011;2896;53.500;10.020;2023-09-18T06:41:54;9.90;;;9.10;;
5742;SDS011;2896;53.500;10.020;2023-09-18T06:44:21;10.47;;;9.47;;
5742;SDS011;2896;53.500;10.020;2023-09-18T06:46:48;10.57;;;9.47;;
5742;SDS011;2896;53.500;10.020;2023-09-18T06:49:15;13.00;;;9.17;;
5742;SDS011;2896;53.500;10.020;2023-09-18T06:51:43;13.17;;;9.30;;
5742;SDS011;2896;53.500;10.020;2023-09-18T06:54:09;18.33;;;9.63;;
5742;SDS011;2896;53.500;10.020;2023-09-18T06:56:36;11.10;;;9.37;;
5742;SDS011;2896;53.500;10.020;2023-09-18T06:59:03;13.97;;;9.70;;
5742;SDS011;2896;53.500;10.020;2023-09-18T07:01:30;10.50;;;9.40;;
5742;SDS011;2896;53.500;10.020;2023-09-18T07:03:56;10.47;;;8.77;;
5742;SDS011;2896;53.500;10.020;2023-09-18T07:06:24;9.23;;;8.40;;
5742;SDS011;2896;53.500;10.020;2023-09-18T07:08:52;12.23;;;8.90;;
5742;SDS011;2896;53.500;10.020;2023-09-18T07:11:19;9.23;;;8.20;;
5742;SDS011;2896;53.500;10.020;2023-09-18T07:13:46;15.33;;;9.30;;
5742;SDS011;2896;53.500;10.020;2023-09-18T07:16:12;8.80;;;8.10;;
5742;SDS011;2896;53.500;10.020;2023-09-18T07:18:39;10.00;;;9.03;;
5742;SDS011;2896;53.500;10.020;2023-09-18T07:21:06;10.77;;;8.50;;
5742;SDS011;2896;53.500;10.020;2023-09-18T07:23:32;9.00;;;8.30;;
5742;SDS011;2896;53.500;10.020;2023-09-18T07:26:03;8.70;;;7.90;;
5742;SDS011;2896;53.500;10.020;2023-09-18T07:28:31;9.97;;;9.03;;
5742;SDS011;2896;53.500;10.020;2023-09-18T07:31:02;9.07;;;8.37;;
5742;SDS011;2896;53.500;10.020;2023-09-18T07:33:31;8.53;;;7.83;;
5742;SDS011;2896;53.500;10.020;2023-09-18T07:35:57;8.37;;;7.57;;
5742;SDS011;2896;53.500;10.020;2023-09-18T07:38:24;9.17;;;8.43;;
5742;SDS011;2896;53.500;10.020;2023-09-18T07:40:51;7.57;;;7.00;;
5742;SDS011;2896;53.500;10.020;2023-09-18T07:43:19;10.23;;;8.03;;
5742;SDS011;2896;53.500;10.020;2023-09-18T07:45:45;8.33;;;7.70;;
5742;SDS011;2896;53.500;10.020;2023-09-18T07:48:12;8.40;;;7.70;;
5742;SDS011;2896;53.500;10.020;2023-09-18T07:50:41;7.63;;;7.00;;
5742;SDS011;2896;53.500;10.020;2023-09-18T07:53:10;7.97;;;7.37;;
5742;SDS011;2896;53.500;10.020;2023-09-18T07:55:36;9.07;;;8.30;;
5742;SDS011;2896;53.500;10.020;2023-09-18T07:58:03;8.73;;;7.30;;
5742;SDS011;2896;53.500;10.020;2023-09-18T08:00:31;9.50;;;8.00;;
5742;SDS011;2896;53.500;10.020;2023-09-18T08:02:58;8.50;;;7.80;;
5742;SDS011;2896;53.500;10.020;2023-09-18T08:05:25;7.73;;;7.10;;
5742;SDS011;2896;53.500;10.020;2023-09-18T08:07:53;8.50;;;7.67;;
5742;SDS011;2896;53.500;10.020;2023-09-18T08:10:21;7.40;;;6.70;;
5742;SDS011;2896;53.500;10.020;2023-09-18T08:12:48;7.80;;;7.20;;
5742;SDS011;2896;53.500;10.020;2023-09-18T08:15:17;8.83;;;7.90;;
5742;SDS011;2896;53.500;10.020;2023-09-18T08:17:45;10.13;;;7.40;;
5742;SDS011;2896;53.500;10.020;2023-09-18T08:20:14;9.50;;;7.13;;
5742;SDS011;2896;53.500;10.020;2023-09-18T08:22:41;8.23;;;7.53;;
5742;SDS011;2896;53.500;10.020;2023-09-18T08:25:08;9.13;;;7.00;;
5742;SDS011;2896;53.500;10.020;2023-09-18T08:27:36;8.17;;;7.47;;
5742;SDS011;2896;53.500;10.020;2023-09-18T08:30:05;7.97;;;7.43;;
5742;SDS011;2896;53.500;10.020;2023-09-18T08:32:32;9.03;;;8.20;;
5742;SDS011;2896;53.500;10.020;2023-09-18T08:35:01;14.43;;;8.23;;
5742;SDS011;2896;53.500;10.020;2023-09-18T08:37:28;7.70;;;7.20;;
5742;SDS011;2896;53.500;10.020;2023-09-18T08:39:54;6.63;;;6.23;;
5742;SDS011;2896;53.500;10.020;2023-09-18T08:42:21;8.53;;;7.80;;
5742;SDS011;2896;53.500;10.020;2023-09-18T08:44:49;8.30;;;7.63;;
5742;SDS011;2896;53.500;10.020;2023-09-18T08:47:17;8.67;;;6.90;;
5742;SDS011;2896;53.500;10.020;2023-09-18T08:49:45;9.30;;;7.23;;
5742;SDS011;2896;53.500;10.020;2023-09-18T08:52:15;7.70;;;6.60;;
5742;SDS011;2896;53.500;10.020;2023-09-18T08:54:43;7.57;;;6.80;;
5742;SDS011;2896;53.500;10.020;2023-09-18T08:57:10;7.20;;;6.57;;
5742;SDS011;2896;53.500;10.020;2023-09-18T08:59:37;7.47;;;6.90;;
5742;SDS011;2896;53.500;10.020;2023-09-18T09:02:05;10.90;;;6.60;;
5742;SDS011;2896;53.500;10.020;2023-09-18T09:04:36;7.27;;;6.67;;
5742;SDS011;2896;53.500;10.020;2023-09-18T09:07:03;9.10;;;7.00;;
5742;SDS011;2896;53.500;10.020;2023-09-18T09:09:31;8.70;;;7.90;;
5742;SDS011;2896;53.500;10.020;2023-09-18T09:11:58;7.60;;;6.80;;
5742;SDS011;2896;53.500;10.020;2023-09-18T09:14:24;8.17;;;6.13;;
5742;SDS011;2896;53.500;10.020;2023-09-18T09:16:54;6.80;;;6.30;;
5742;SDS011;2896;53.500;10.020;2023-09-18T09:19:27;7.57;;;6.80;;
5742;SDS011;2896;53.500;10.020;2023-09-18T09:21:56;9.77;;;6.97;;
5742;SDS011;2896;53.500;10.020;2023-09-18T09:24:36;6.63;;;6.13;;
5742;SDS011;2896;53.500;10.020;2023-09-18T09:27:04;6.37;;;5.87;;
5742;SDS011;2896;53.500;10.020;2023-09-18T09:29:31;7.90;;;6.50;;
5742;SDS011;2896;53.500;10.020;2023-09-18T09:32:11;6.63;;;6.07;;
5742;SDS011;2896;53.500;10.020;2023-09-18T09:34:40;21.27;;;8.07;;
5742;SDS011;2896;53.500;10.020;2023-09-18T09:37:07;6.67;;;6.07;;
5742;SDS011;2896;53.500;10.020;2023-09-18T09:39:33;7.30;;;6.37;;
5742;SDS011;2896;53.500;10.020;2023-09-18T09:42:02;6.40;;;6.00;;
5742;SDS011;2896;53.500;10.020;2023-09-18T09:44:31;5.40;;;5.10;;
5742;SDS011;2896;53.500;10.020;2023-09-18T09:46:58;6.43;;;5.93;;
5742;SDS011;2896;53.500;10.020;2023-09-18T09:49:25;6.20;;;5.80;;
5742;SDS011;2896;53.500;10.020;2023-09-18T09:51:55;6.27;;;5.40;;
5742;SDS011;2896;53.500;10.020;2023-09-18T09:54:31;12.07;;;6.60;;
5742;SDS011;2896;53.500;10.020;2023-09-18T09:57:03;8.97;;;5.30;;
5742;SDS011;2896;53.500;10.020;2023-09-18T09:59:30;5.53;;;5.03;;
5742;SDS011;2896;53.500;10.020;2023-09-18T10:01:58;8.77;;;5.70;;
5742;SDS011;2896;53.500;10.020;2023-09-18T10:04:25;12.63;;;6.60;;
5742;SDS011;2896;53.500;10.020;2023-09-18T10:06:55;5.37;;;4.87;;
5742;SDS011;2896;53.500;10.020;2023-09-18T10:09:25;5.87;;;5.37;;
5742;SDS011;2896;53.500;10.020;2023-09-18T10:11:54;7.87;;;4.80;;
5742;SDS011;2896;53.500;10.020;2023-09-18T10:14:28;5.63;;;5.20;;
5742;SDS011;2896;53.500;10.020;2023-09-18T10:16:56;6.00;;;4.60;;
5742;SDS011;2896;53.500;10.020;2023-09-18T10:19:32;8.83;;;5.30;;
5742;SDS011;2896;53.500;10.020;2023-09-18T10:22:05;5.97;;;5.47;;
5742;SDS011;2896;53.500;10.020;2023-09-18T10:24:38;8.33;;;6.00;;
5742;SDS011;2896;53.500;10.020;2023-09-18T10:27:07;6.00;;;5.40;;
5742;SDS011;2896;53.500;10.020;2023-09-18T10:29:35;8.07;;;4.60;;
5742;SDS011;2896;53.500;10.020;2023-09-18T10:32:04;6.47;;;5.60;;
5742;SDS011;2896;53.500;10.020;2023-09-18T10:34:32;15.13;;;5.50;;
5742;SDS011;2896;53.500;10.020;2023-09-18T10:37:01;6.90;;;6.20;;
5742;SDS011;2896;53.500;10.020;2023-09-18T10:39:31;7.93;;;5.97;;
5742;SDS011;2896;53.500;10.020;2023-09-18T10:42:02;10.90;;;4.80;;
5742;SDS011;2896;53.500;10.020;2023-09-18T10:44:31;9.60;;;5.73;;
5742;SDS011;2896;53.500;10.020;2023-09-18T10:47:00;7.00;;;5.30;;
5742;SDS011;2896;53.500;10.020;2023-09-18T10:49:30;8.87;;;5.07;;
5742;SDS011;2896;53.500;10.020;2023-09-18T10:51:58;5.57;;;5.07;;
5742;SDS011;2896;53.500;10.020;2023-09-18T10:54:26;5.57;;;5.00;;
5742;SDS011;2896;53.500;10.020;2023-09-18T10:56:55;10.47;;;5.07;;
5742;SDS011;2896;53.500;10.020;2023-09-18T10:59:23;4.70;;;4.40;;
5742;SDS011;2896;53.500;10.020;2023-09-18T11:01:50;7.70;;;4.80;;
5742;SDS011;2896;53.500;10.020;2023-09-18T11:04:19;5.57;;;4.80;;
5742;SDS011;2896;53.500;10.020;2023-09-18T11:07:02;4.83;;;4.33;;
5742;SDS011;2896;53.500;10.020;2023-09-18T11:09:31;12.00;;;4.33;;
5742;SDS011;2896;53.500;10.020;2023-09-18T11:12:06;9.13;;;4.73;;
5742;SDS011;2896;53.500;10.020;2023-09-18T11:14:41;13.87;;;5.40;;
5742;SDS011;2896;53.500;10.020;2023-09-18T11:20:08;12.60;;;4.30;;
5742;SDS011;2896;53.500;10.020;2023-09-18T11:22:46;6.53;;;4.93;;
5742;SDS011;2896;53.500;10.020;2023-09-18T11:28:07;9.50;;;5.13;;
5742;SDS011;2896;53.500;10.020;2023-09-18T11:30:34;16.40;;;4.67;;
5742;SDS011;2896;53.500;10.020;2023-09-18T11:33:02;5.13;;;4.50;;
5742;SDS011;2896;53.500;10.020;2023-09-18T11:35:32;11.47;;;5.07;;
5742;SDS011;2896;53.500;10.020;2023-09-18T11:38:06;6.93;;;4.30;;
5742;SDS011;2896;53.500;10.020;2023-09-18T11:40:35;10.07;;;4.17;;
5742;SDS011;2896;53.500;10.020;2023-09-18T11:43:20;6.10;;;4.00;;
5742;SDS011;2896;53.500;10.020;2023-09-18T11:45:51;7.70;;;4.07;;
5742;SDS011;2896;53.500;10.020;2023-09-18T11:48:20;9.50;;;4.23;;
5742;SDS011;2896;53.500;10.020;2023-09-18T11:50:54;11.80;;;4.33;;
5742;SDS011;2896;53.500;10.020;2023-09-18T11:53:23;6.40;;;3.93;;
5742;SDS011;2896;53.500;10.020;2023-09-18T11:55:52;9.97;;;5.03;;
5742;SDS011;2896;53.500;10.020;2023-09-18T11:58:19;10.50;;;4.37;;
5742;SDS011;2896;53.500;10.020;2023-09-18T12:00:48;15.87;;;3.90;;
5742;SDS011;2896;53.500;10.020;2023-09-18T12:03:16;5.33;;;3.80;;
5742;SDS011;2896;53.500;10.020;2023-09-18T12:05:50;9.50;;;4.07;;
5742;SDS011;2896;53.500;10.020;2023-09-18T12:08:23;14.33;;;3.60;;
5742;SDS011;2896;53.500;10.020;2023-09-18T12:10:52;7.73;;;3.73;;
5742;SDS011;2896;53.500;10.020;2023-09-18T12:13:19;7.03;;;3.90;;
5742;SDS011;2896;53.500;10.020;2023-09-18T12:15:47;9.80;;;3.63;;
5742;SDS011;2896;53.500;10.020;2023-09-18T12:18:14;11.67;;;3.60;;
5742;SDS011;2896;53.500;10.020;2023-09-18T12:20:45;6.20;;;3.57;;
5742;SDS011;2896;53.500;10.020;2023-09-18T12:23:14;6.20;;;3.60;;
5742;SDS011;2896;53.500;10.020;2023-09-18T12:25:41;5.17;;;3.63;;
5742;SDS011;2896;53.500;10.020;2023-09-18T12:28:10;26.13;;;6.60;;
5742;SDS011;2896;53.500;10.020;2023-09-18T12:30:39;31.27;;;7.43;;
5742;SDS011;2896;53.500;10.020;2023-09-18T12:33:06;41.97;;;10.07;;
5742;SDS011;2896;53.500;10.020;2023-09-18T12:35:33;26.87;;;4.60;;
5742;SDS011;2896;53.500;10.020;2023-09-18T12:38:01;14.43;;;5.10;;
5742;SDS011;2896;53.500;10.020;2023-09-18T12:40:31;16.90;;;5.50;;
5742;SDS011;2896;53.500;10.020;2023-09-18T12:42:59;5.23;;;3.13;;
5742;SDS011;2896;53.500;10.020;2023-09-18T12:45:26;13.87;;;3.63;;
5742;SDS011;2896;53.500;10.020;2023-09-18T12:47:55;10.30;;;2.83;;
5742;SDS011;2896;53.500;10.020;2023-09-18T12:50:23;3.20;;;2.80;;
5742;SDS011;2896;53.500;10.020;2023-09-18T12:52:50;17.17;;;3.27;;
5742;SDS011;2896;53.500;10.020;2023-09-18T12:55:20;11.47;;;3.60;;
5742;SDS011;2896;53.500;10.020;2023-09-18T12:57:50;4.47;;;2.73;;
5742;SDS011;2896;53.500;10.020;2023-09-18T13:00:18;8.70;;;3.40;;
5742;SDS011;2896;53.500;10.020;2023-09-18T13:02:46;6.77;;;3.27;;
5742;SDS011;2896;53.500;10.020;2023-09-18T13:05:13;7.93;;;3.03;;
5742;SDS011;2896;53.500;10.020;2023-09-18T13:07:45;11.80;;;3.30;;
5742;SDS011;2896;53.500;10.020;2023-09-18T13:10:13;15.30;;;3.30;;
5742;SDS011;2896;53.500;10.020;2023-09-18T13:12:41;6.27;;;2.47;;
5742;SDS011;2896;53.500;10.020;2023-09-18T13:15:09;4.20;;;3.10;;
5742;SDS011;2896;53.500;10.020;2023-09-18T13:17:38;4.63;;;3.47;;
5742;SDS011;2896;53.500;10.020;2023-09-18T13:20:08;5.80;;;2.30;;
5742;SDS011;2896;53.500;10.020;2023-09-18T13:22:38;10.00;;;3.10;;
5742;SDS011;2896;53.500;10.020;2023-09-18T13:25:05;4.83;;;2.87;;
5742;SDS011;2896;53.500;10.020;2023-09-18T13:27:33;10.03;;;2.77;;
5742;SDS011;2896;53.500;10.020;2023-09-18T13:30:00;2.80;;;2.57;;
5742;SDS011;2896;53.500;10.020;2023-09-18T13:32:33;8.43;;;2.97;;
5742;SDS011;2896;53.500;10.020;2023-09-18T13:35:01;6.97;;;2.80;;
5742;SDS011;2896;53.500;10.020;2023-09-18T13:37:30;5.67;;;3.10;;
5742;SDS011;2896;53.500;10.020;2023-09-18T13:39:57;8.33;;;2.70;;
5742;SDS011;2896;53.500;10.020;2023-09-18T13:42:26;6.60;;;2.80;;
5742;SDS011;2896;53.500;10.020;2023-09-18T13:44:54;4.57;;;3.10;;
5742;SDS011;2896;53.500;10.020;2023-09-18T13:47:21;7.57;;;2.90;;
5742;SDS011;2896;53.500;10.020;2023-09-18T13:49:49;7.83;;;3.30;;
5742;SDS011;2896;53.500;10.020;2023-09-18T13:52:17;10.00;;;3.50;;
5742;SDS011;2896;53.500;10.020;2023-09-18T13:54:44;10.10;;;2.77;;
5742;SDS011;2896;53.500;10.020;2023-09-18T13:57:16;10.20;;;3.87;;
5742;SDS011;2896;53.500;10.020;2023-09-18T13:59:43;7.17;;;2.83;;
5742;SDS011;2896;53.500;10.020;2023-09-18T14:02:10;7.00;;;2.67;;
5742;SDS011;2896;53.500;10.020;2023-09-18T14:04:36;4.47;;;2.93;;
5742;SDS011;2896;53.500;10.020;2023-09-18T14:07:05;3.77;;;2.70;;
5742;SDS011;2896;53.500;10.020;2023-09-18T14:09:32;5.53;;;3.27;;
5742;SDS011;2896;53.500;10.020;2023-09-18T14:11:59;7.07;;;3.50;;
5742;SDS011;2896;53.500;10.020;2023-09-18T14:14:26;9.23;;;3.00;;
5742;SDS011;2896;53.500;10.020;2023-09-18T14:16:52;5.73;;;3.00;;
5742;SDS011;2896;53.500;10.020;2023-09-18T14:19:20;5.80;;;2.83;;
5742;SDS011;2896;53.500;10.020;2023-09-18T14:21:48;5.13;;;2.50;;
5742;SDS011;2896;53.500;10.020;2023-09-18T14:24:16;3.10;;;2.73;;
5742;SDS011;2896;53.500;10.020;2023-09-18T14:26:43;9.70;;;3.17;;
5742;SDS011;2896;53.500;10.020;2023-09-18T14:29:10;11.10;;;2.77;;
5742;SDS011;2896;53.500;10.020;2023-09-18T14:31:38;5.73;;;2.93;;
5742;SDS011;2896;53.500;10.020;2023-09-18T14:34:05;2.83;;;2.53;;
5742;SDS011;2896;53.500;10.020;2023-09-18T14:36:33;7.37;;;2.77;;
5742;SDS011;2896;53.500;10.020;2023-09-18T14:39:01;7.40;;;3.10;;
5742;SDS011;2896;53.500;10.020;2023-09-18T14:41:29;4.03;;;2.10;;
5742;SDS011;2896;53.500;10.020;2023-09-18T14:43:57;4.30;;;2.57;;
5742;SDS011;2896;53.500;10.020;2023-09-18T14:46:23;2.47;;;2.27;;
5742;SDS011;2896;53.500;10.020;2023-09-18T14:48:50;4.87;;;2.23;;
5742;SDS011;2896;53.500;10.020;2023-09-18T14:51:17;4.57;;;2.50;;
5742;SDS011;2896;53.500;10.020;2023-09-18T14:53:43;6.90;;;2.63;;
5742;SDS011;2896;53.500;10.020;2023-09-18T14:56:10;3.07;;;2.33;;
5742;SDS011;2896;53.500;10.020;2023-09-18T14:58:38;9.73;;;2.60;;
5742;SDS011;2896;53.500;10.020;2023-09-18T15:01:05;4.40;;;2.77;;
5742;SDS011;2896;53.500;10.020;2023-09-18T15:03:31;3.13;;;2.43;;
5742;SDS011;2896;53.500;10.020;2023-09-18T15:05:58;3.90;;;2.70;;